createdAt,value
2018-11-22T12:16:05.572Z,80.95
2018-11-22T12:18:36.628Z,80.07
2018-11-22T12:21:00.836Z,79.93
2018-11-22T12:26:11.361Z,79.85
2018-11-22T12:28:38.190Z,80.12
2018-11-22T12:31:08.706Z,79.40
2018-11-22T12:33:40.589Z,79.06
2018-11-22T12:36:10.847Z,79.40
2018-11-22T12:38:37.425Z,79.81
2018-11-22T12:41:06.043Z,80.47
2018-11-22T12:46:10.411Z,79.41
2018-11-22T12:48:36.868Z,79.44
2018-11-22T12:51:06.719Z,79.43
2018-11-22T12:53:34.200Z,79.38
2018-11-22T12:56:02.520Z,78.79
2018-11-22T12:58:29.179Z,78.78
2018-11-22T13:00:56.214Z,78.67
2018-11-22T13:03:25.386Z,79.23
2018-11-22T13:05:51.784Z,79.04
2018-11-22T13:10:54.933Z,79.27
2018-11-22T13:13:21.687Z,79.08
2018-11-22T13:15:48.317Z,78.25
2018-11-22T13:18:15.459Z,79.19
2018-11-22T13:20:44.072Z,79.17
2018-11-22T13:23:12.821Z,80.49
2018-11-22T13:25:39.240Z,80.51
2018-11-22T13:28:12.878Z,80.69
2018-11-22T13:30:39.664Z,79.86
2018-11-22T13:33:06.139Z,80.61
2018-11-22T13:35:32.988Z,79.64
2018-11-22T13:37:59.612Z,80.59
2018-11-22T13:40:27.543Z,80.29
2018-11-22T13:42:54.728Z,80.74
2018-11-22T13:45:21.223Z,79.61
2018-11-22T13:47:53.062Z,80.80
2018-11-22T13:50:20.376Z,80.05
2018-11-22T13:52:46.824Z,80.86
2018-11-22T13:55:14.291Z,80.11
2018-11-22T13:57:41.114Z,80.39
2018-11-22T14:00:07.592Z,80.84
2018-11-22T14:02:35.458Z,80.76
2018-11-22T14:10:10.324Z,80.57
2018-11-22T14:12:37.140Z,80.20
2018-11-22T14:15:03.548Z,81.03
2018-11-22T14:17:30.784Z,81.12
2018-11-22T14:20:00.575Z,81.23
2018-11-22T14:22:28.894Z,81.82
2018-11-22T14:24:55.268Z,81.72
2018-11-22T14:27:22.368Z,82.18
2018-11-22T14:29:48.859Z,82.48
2018-11-22T14:32:15.235Z,82.42
2018-11-22T14:34:42.062Z,81.94
2018-11-22T14:37:08.549Z,81.42
2018-11-22T14:39:34.931Z,81.29
2018-11-22T14:42:01.802Z,81.24
2018-11-22T14:44:28.334Z,81.75
2018-11-22T14:46:54.694Z,82.43
2018-11-22T14:49:21.482Z,83.27
2018-11-22T14:51:47.920Z,83.75
2018-11-22T14:54:15.195Z,83.95
2018-11-22T14:56:42.847Z,84.65
2018-11-22T14:59:09.220Z,84.45
2018-11-22T15:01:35.609Z,84.22
2018-11-22T15:04:04.035Z,84.58
2018-11-22T15:06:32.818Z,84.71
2018-11-22T15:09:01.859Z,84.92
2018-11-22T15:11:28.995Z,85.04
2018-11-22T15:14:03.284Z,84.93
2018-11-22T15:16:29.665Z,85.17
2018-11-22T15:18:57.849Z,85.29
2018-11-22T15:21:24.224Z,85.54
2018-11-22T15:23:50.585Z,86.01
2018-11-22T15:26:17.431Z,86.48
2018-11-22T15:28:44.061Z,86.72
2018-11-22T15:31:10.442Z,86.92
2018-11-22T15:33:37.117Z,87.15
2018-11-22T15:36:03.522Z,87.55
2018-11-22T15:38:29.886Z,87.93
2018-11-22T15:40:56.791Z,88.34
2018-11-22T15:43:23.310Z,88.65
2018-11-22T15:45:49.903Z,88.94
2018-11-22T15:48:16.674Z,89.04
2018-11-22T15:50:43.060Z,89.30
2018-11-22T15:53:09.437Z,89.44
2018-11-22T15:55:36.786Z,89.44
2018-11-22T15:58:08.300Z,89.63
2018-11-22T16:00:34.679Z,89.68
2018-11-22T16:03:01.735Z,89.92
2018-11-22T16:05:28.221Z,89.76
2018-11-22T16:07:55.372Z,89.85
2018-11-22T16:10:26.983Z,89.76
2018-11-22T16:12:48.711Z,89.72
2018-11-22T16:15:15.072Z,89.78
2018-11-22T16:17:41.748Z,89.67
2018-11-22T16:20:08.223Z,89.73
2018-11-22T16:22:34.587Z,89.40
2018-11-22T16:25:01.475Z,89.59
2018-11-22T16:27:28.820Z,89.45
2018-11-22T16:29:55.425Z,89.24
2018-11-22T16:32:22.092Z,89.11
2018-11-22T16:34:48.474Z,88.93
2018-11-22T16:37:15.163Z,89.03
2018-11-22T16:39:43.517Z,89.09
2018-11-22T16:42:11.809Z,88.60
2018-11-22T16:44:38.172Z,89.06
2018-11-22T16:47:05.195Z,89.24
2018-11-22T16:49:31.635Z,88.87
2018-11-22T16:51:58.266Z,88.51
2018-11-22T16:54:28.989Z,88.55
2018-11-22T16:56:55.742Z,88.42
2018-11-22T16:59:22.118Z,88.92
2018-11-22T17:01:48.842Z,88.92
2018-11-22T17:04:15.219Z,88.45
2018-11-22T17:06:41.583Z,88.11
2018-11-22T17:09:08.286Z,88.63
2018-11-22T17:11:35.293Z,88.49
2018-11-22T17:14:01.670Z,88.73
2018-11-22T17:16:28.375Z,88.70
2018-11-22T17:18:54.758Z,88.56
2018-11-22T17:21:21.134Z,88.82
2018-11-22T17:23:47.950Z,88.52
2018-11-22T17:26:14.331Z,88.53
2018-11-22T17:28:40.688Z,88.19
2018-11-22T17:31:07.461Z,87.97
2018-11-22T17:33:33.850Z,87.92
2018-11-22T17:36:00.208Z,87.47
2018-11-22T17:38:26.573Z,87.30
2018-11-22T17:40:53.732Z,86.97
2018-11-22T17:43:20.721Z,86.94
2018-11-22T17:45:47.073Z,86.86
2018-11-22T17:48:13.664Z,87.14
2018-11-22T17:50:41.777Z,86.80
2018-11-22T17:53:08.161Z,86.90
2018-11-22T17:55:34.754Z,86.65
2018-11-22T17:58:01.597Z,86.82
2018-11-22T18:00:28.032Z,87.14
2018-11-22T18:02:54.470Z,87.58
2018-11-22T18:05:26.916Z,87.82
2018-11-22T18:07:48.605Z,87.73
2018-11-22T18:10:15.749Z,87.88
2018-11-22T18:12:42.535Z,87.80
2018-11-22T18:15:08.892Z,88.32
2018-11-22T18:17:35.252Z,88.42
2018-11-22T18:20:02.058Z,89.14
2018-11-22T18:22:28.415Z,89.25
2018-11-22T18:24:54.870Z,90.14
2018-11-22T18:27:21.786Z,90.30
2018-11-22T18:29:48.523Z,90.21
2018-11-22T18:32:14.947Z,90.34
2018-11-22T18:34:41.759Z,90.42
2018-11-22T18:37:08.138Z,90.90
2018-11-22T18:39:34.489Z,90.93
2018-11-22T18:42:01.163Z,91.32
2018-11-22T18:44:27.514Z,91.64
2018-11-22T18:46:53.859Z,92.20
2018-11-22T18:49:23.641Z,92.55
2018-11-22T18:51:50.067Z,93.00
2018-11-22T18:54:16.500Z,92.94
2018-11-22T18:56:43.511Z,93.27
2018-11-22T18:59:10.180Z,93.67
2018-11-22T19:01:36.566Z,93.79
2018-11-22T19:04:03.351Z,94.04
2018-11-22T19:06:29.726Z,94.15
2018-11-22T19:08:56.081Z,94.26
2018-11-22T19:11:22.849Z,94.33
2018-11-22T19:13:49.353Z,94.39
2018-11-22T19:16:16.187Z,94.68
2018-11-22T19:18:43.825Z,95.02
2018-11-22T19:21:10.327Z,95.27
2018-11-22T19:23:37.377Z,95.79
2018-11-22T19:26:04.962Z,95.68
2018-11-22T19:28:31.343Z,95.87
2018-11-22T19:30:57.703Z,95.95
2018-11-22T19:33:24.424Z,96.34
2018-11-22T19:35:51.659Z,96.77
2018-11-22T19:38:18.077Z,96.88
2018-11-22T19:40:45.121Z,97.03
2018-11-22T19:43:11.539Z,96.85
2018-11-22T19:45:38.133Z,97.38
2018-11-22T19:48:05.188Z,97.45
2018-11-22T19:50:31.624Z,97.44
2018-11-22T19:52:59.227Z,98.23
2018-11-22T19:55:25.886Z,98.32
2018-11-22T19:57:52.887Z,98.22
2018-11-22T20:00:19.248Z,98.23
2018-11-22T20:02:45.922Z,98.16
2018-11-22T20:05:12.285Z,98.22
2018-11-22T20:07:38.651Z,98.27
2018-11-22T20:10:05.406Z,98.39
2018-11-22T20:12:31.775Z,98.43
2018-11-22T20:14:58.266Z,98.57
2018-11-22T20:17:26.972Z,98.66
2018-11-22T20:19:55.119Z,98.90
2018-11-22T20:22:21.966Z,98.91
2018-11-22T20:24:48.699Z,99.00
2018-11-22T20:27:15.338Z,99.36
2018-11-22T20:29:41.751Z,99.64
2018-11-22T20:32:08.479Z,99.62
2018-11-22T20:34:36.413Z,99.50
2018-11-22T20:37:03.692Z,99.51
2018-11-22T20:39:32.709Z,99.69
2018-11-22T20:42:02.451Z,99.26
2018-11-22T20:44:31.649Z,99.47
2018-11-22T20:46:58.040Z,99.47
2018-11-22T20:49:24.398Z,99.69
2018-11-22T20:51:51.670Z,100.00
2018-11-22T20:54:18.037Z,100.00
2018-11-22T20:56:44.412Z,99.96
2018-11-22T20:59:11.158Z,99.96
2018-11-22T21:01:37.658Z,99.76
2018-11-22T21:04:04.759Z,100.00
2018-11-22T21:06:31.801Z,99.88
2018-11-22T21:08:58.193Z,100.00
2018-11-22T21:11:24.749Z,100.00
2018-11-22T21:13:51.477Z,100.00
2018-11-22T21:16:17.858Z,100.00
2018-11-22T21:18:44.662Z,100.00
2018-11-22T21:21:11.330Z,100.00
2018-11-22T21:23:37.738Z,100.00
2018-11-22T21:26:04.233Z,100.00
2018-11-22T21:28:32.057Z,100.00
2018-11-22T21:30:58.414Z,100.00
2018-11-22T21:33:24.811Z,100.00
2018-11-22T21:35:51.468Z,100.00
2018-11-22T21:38:17.831Z,99.86
2018-11-22T21:40:44.207Z,99.99
2018-11-22T21:43:10.891Z,100.00
2018-11-22T21:45:37.260Z,100.00
2018-11-22T21:48:03.627Z,100.00
2018-11-22T21:50:30.280Z,100.00
2018-11-22T21:52:57.239Z,100.00
2018-11-22T21:55:23.611Z,100.00
2018-11-22T21:57:50.338Z,100.00
2018-11-22T22:00:17.318Z,100.00
2018-11-22T22:02:43.925Z,100.00
2018-11-22T22:05:10.602Z,100.00
2018-11-22T22:07:37.404Z,100.00
2018-11-22T22:10:04.443Z,100.00
2018-11-22T22:12:31.294Z,100.00
2018-11-22T22:14:57.912Z,100.00
2018-11-22T22:17:24.533Z,100.00
2018-11-22T22:19:51.296Z,100.00
2018-11-22T22:22:17.974Z,100.00
2018-11-22T22:24:44.378Z,100.00
2018-11-22T22:27:10.750Z,100.00
2018-11-22T22:29:37.587Z,100.00
2018-11-22T22:32:03.994Z,100.00
2018-11-22T22:34:30.353Z,100.00
2018-11-22T22:36:57.030Z,100.00
2018-11-22T22:39:23.406Z,100.00
2018-11-22T22:41:49.791Z,100.00
2018-11-22T22:44:16.469Z,100.00
2018-11-22T22:46:42.827Z,100.00
2018-11-22T22:49:09.310Z,100.00
2018-11-22T22:51:35.682Z,100.00
2018-11-22T22:54:02.784Z,100.00
2018-11-22T22:56:29.153Z,100.00
2018-11-22T22:58:55.512Z,100.00
2018-11-22T23:01:22.272Z,100.00
2018-11-22T23:03:49.029Z,100.00
2018-11-22T23:06:15.463Z,100.00
2018-11-22T23:08:41.826Z,100.00
2018-11-22T23:11:08.654Z,100.00
2018-11-22T23:13:35.043Z,100.00
2018-11-22T23:16:01.434Z,100.00
2018-11-22T23:18:28.215Z,100.00
2018-11-22T23:20:54.562Z,100.00
2018-11-22T23:23:20.919Z,100.00
2018-11-22T23:25:47.618Z,100.00
2018-11-22T23:28:13.972Z,100.00
2018-11-22T23:30:40.430Z,100.00
2018-11-22T23:33:06.796Z,100.00
2018-11-22T23:35:33.955Z,100.00
2018-11-22T23:38:00.465Z,100.00
2018-11-22T23:40:27.514Z,100.00
2018-11-22T23:42:54.527Z,100.00
2018-11-22T23:45:20.953Z,100.00
2018-11-22T23:47:48.756Z,100.00
2018-11-22T23:50:15.648Z,100.00
2018-11-22T23:52:42.581Z,100.00
2018-11-22T23:55:08.970Z,100.00
2018-11-22T23:57:35.338Z,100.00
